createdAt,value
2019-04-22T00:02:09.537Z,33.40
2019-04-22T00:04:51.265Z,33.20
2019-04-22T00:07:39.194Z,33.30
2019-04-22T00:10:13.483Z,33.40
2019-04-22T00:12:48.631Z,34.10
2019-04-22T00:15:09.986Z,34.00
2019-04-22T00:17:55.267Z,34.60
2019-04-22T00:20:24.315Z,34.80
2019-04-22T00:22:55.015Z,34.80
2019-04-22T00:28:04.964Z,36.00
2019-04-22T00:30:34.256Z,36.20
2019-04-22T00:33:17.993Z,36.40
2019-04-22T00:35:49.779Z,37.10
2019-04-22T00:38:26.584Z,37.50
2019-04-22T00:40:56.452Z,37.70
2019-04-22T00:43:32.948Z,37.40
2019-04-22T00:46:02.121Z,37.30
2019-04-22T00:48:32.214Z,38.10
2019-04-22T00:53:44.297Z,36.80
2019-04-22T00:56:18.468Z,36.90
2019-04-22T00:58:46.637Z,39.30
2019-04-22T01:01:19.189Z,40.60
2019-04-22T01:04:07.564Z,41.20
2019-04-22T01:06:28.643Z,41.20
2019-04-22T01:09:10.876Z,40.00
2019-04-22T01:14:01.357Z,41.10
2019-04-22T01:16:40.798Z,40.80
2019-04-22T01:19:07.193Z,40.40
2019-04-22T01:24:17.773Z,38.40
2019-04-22T01:26:47.665Z,38.80
2019-04-22T01:29:17.583Z,39.10
2019-04-22T01:31:38.270Z,39.00
2019-04-22T01:34:23.312Z,39.30
2019-04-22T01:36:57.639Z,40.00
2019-04-22T01:39:39.048Z,40.00
2019-04-22T01:42:12.064Z,39.00
2019-04-22T01:44:45.377Z,39.20
2019-04-22T01:47:19.730Z,38.80
2019-04-22T01:49:53.808Z,38.80
2019-04-22T01:52:20.438Z,39.20
2019-04-22T01:54:59.272Z,38.90
2019-04-22T01:57:28.490Z,39.10
2019-04-22T01:59:59.150Z,39.00
2019-04-22T02:02:38.451Z,39.20
2019-04-22T02:05:12.229Z,39.40
2019-04-22T02:07:46.979Z,38.80
2019-04-22T02:10:20.046Z,39.50
2019-04-22T02:12:48.508Z,39.30
2019-04-22T02:15:17.087Z,37.10
2019-04-22T02:17:56.253Z,38.70
2019-04-22T02:20:29.715Z,39.50
2019-04-22T02:26:02.447Z,40.60
2019-04-22T02:38:59.038Z,40.50
2019-04-22T02:41:31.048Z,40.50
2019-04-22T02:49:18.830Z,40.60
2019-04-22T02:51:32.753Z,40.60
2019-04-22T03:07:03.617Z,39.50
2019-04-22T03:12:11.549Z,39.60
2019-04-22T03:14:38.099Z,39.80
2019-04-22T03:17:10.593Z,40.00
2019-04-22T03:25:06.128Z,40.00
2019-04-22T03:27:31.870Z,40.30
2019-04-22T03:37:52.568Z,40.40
2019-04-22T03:40:30.209Z,41.10
2019-04-22T03:53:09.842Z,42.90
2019-04-22T03:55:49.049Z,42.90
2019-04-22T03:58:32.456Z,42.60
2019-04-22T04:03:23.386Z,43.70
2019-04-22T04:05:54.127Z,44.30
2019-04-22T04:10:53.469Z,44.30
2019-04-22T04:13:33.953Z,44.30
2019-04-22T04:16:07.806Z,44.50
2019-04-22T04:18:46.990Z,44.20
2019-04-22T04:21:26.714Z,44.30
2019-04-22T04:24:01.257Z,43.90
2019-04-22T04:26:32.466Z,44.00
2019-04-22T04:31:36.634Z,43.60
2019-04-22T04:34:03.584Z,44.20
2019-04-22T04:36:34.489Z,45.10
2019-04-22T04:41:43.291Z,45.10
2019-04-22T04:44:34.337Z,44.60
2019-04-22T04:46:51.759Z,44.40
2019-04-22T04:57:17.350Z,44.20
2019-04-22T04:59:57.774Z,43.70
2019-04-22T05:01:58.370Z,43.90
2019-04-22T05:04:46.504Z,43.90
2019-04-22T05:07:18.691Z,43.70
2019-04-22T05:09:46.263Z,43.80
2019-04-22T05:12:29.156Z,44.00
2019-04-22T05:14:46.469Z,44.00
2019-04-22T05:17:25.408Z,43.60
2019-04-22T05:19:49.903Z,43.90
2019-04-22T05:22:24.411Z,44.30
2019-04-22T05:24:58.322Z,44.20
2019-04-22T05:32:37.333Z,44.40
2019-04-22T05:35:10.254Z,44.20
2019-04-22T05:37:41.596Z,44.20
2019-04-22T05:42:44.435Z,43.40
2019-04-22T05:47:52.043Z,43.40
2019-04-22T05:50:20.422Z,43.10
2019-04-22T05:52:57.372Z,43.30
2019-04-22T05:55:36.283Z,42.90
2019-04-22T05:58:02.927Z,44.60
2019-04-22T06:03:20.843Z,44.20
2019-04-22T06:05:45.285Z,44.40
2019-04-22T06:08:22.028Z,43.50
2019-04-22T06:13:18.164Z,42.80
2019-04-22T06:15:52.920Z,42.60
2019-04-22T06:18:27.159Z,42.90
2019-04-22T06:21:08.954Z,43.40
2019-04-22T06:23:42.647Z,42.00
2019-04-22T06:26:19.418Z,40.40
2019-04-22T06:28:48.129Z,39.70
2019-04-22T06:31:16.024Z,39.40
2019-04-22T06:33:48.119Z,39.00
2019-04-22T06:36:24.435Z,38.60
2019-04-22T06:38:55.864Z,38.50
2019-04-22T06:41:31.577Z,37.90
2019-04-22T06:44:04.782Z,37.50
2019-04-22T06:49:11.193Z,37.60
2019-04-22T06:51:42.261Z,37.90
2019-04-22T06:54:17.589Z,37.80
2019-04-22T06:56:49.201Z,38.10
2019-04-22T06:59:19.073Z,38.00
2019-04-22T07:01:59.343Z,37.80
2019-04-22T07:04:29.591Z,37.90
2019-04-22T07:07:08.181Z,37.30
2019-04-22T07:09:41.398Z,38.30
2019-04-22T07:12:11.572Z,37.60
2019-04-22T07:14:42.044Z,37.80
2019-04-22T07:17:14.933Z,37.90
2019-04-22T07:19:51.187Z,38.00
2019-04-22T07:22:21.574Z,37.90
2019-04-22T07:24:55.819Z,37.90
2019-04-22T07:27:44.236Z,38.00
2019-04-22T07:30:03.904Z,37.90
2019-04-22T07:32:54.914Z,38.00
2019-04-22T07:35:07.466Z,38.10
2019-04-22T07:37:41.887Z,37.90
2019-04-22T07:40:09.920Z,37.80
2019-04-22T07:42:45.107Z,37.90
2019-04-22T07:45:16.558Z,37.70
2019-04-22T07:48:02.626Z,37.80
2019-04-22T07:50:35.676Z,37.70
2019-04-22T07:52:58.629Z,37.20
2019-04-22T07:55:32.659Z,37.10
2019-04-22T07:58:08.189Z,37.50
2019-04-22T08:01:04.130Z,37.70
2019-04-22T08:03:22.397Z,37.60
2019-04-22T08:06:02.562Z,37.60
2019-04-22T08:08:26.127Z,37.90
2019-04-22T08:11:21.583Z,37.50
2019-04-22T08:13:31.275Z,37.10
2019-04-22T08:16:16.831Z,37.20
2019-04-22T08:19:00.283Z,37.20
2019-04-22T08:21:13.681Z,36.90
2019-04-22T08:23:51.038Z,36.70
2019-04-22T08:26:21.965Z,36.60
2019-04-22T08:28:51.759Z,36.50
2019-04-22T08:31:28.585Z,36.40
2019-04-22T08:34:01.932Z,36.20
2019-04-22T08:36:40.811Z,36.00
2019-04-22T08:44:07.633Z,35.60
2019-04-22T08:46:52.135Z,35.10
2019-04-22T08:49:19.914Z,34.60
2019-04-22T08:51:49.478Z,34.30
2019-04-22T08:54:25.944Z,33.60
2019-04-22T08:57:06.698Z,33.40
2019-04-22T08:59:35.285Z,33.40
2019-04-22T09:02:12.100Z,33.50
2019-04-22T09:04:39.120Z,33.30
2019-04-22T09:09:50.774Z,32.80
2019-04-22T09:12:23.883Z,32.50
2019-04-22T09:14:53.665Z,31.60
2019-04-22T09:17:28.150Z,32.00
2019-04-22T09:20:00.693Z,32.10
2019-04-22T09:22:36.382Z,31.70
2019-04-22T09:25:08.016Z,31.50
2019-04-22T09:27:47.898Z,31.70
2019-04-22T09:30:20.325Z,31.80
2019-04-22T09:32:59.570Z,32.00
2019-04-22T09:35:24.796Z,32.10
2019-04-22T09:37:58.831Z,31.90
2019-04-22T09:40:28.983Z,32.20
2019-04-22T09:43:05.018Z,32.00
2019-04-22T09:45:34.417Z,32.00
2019-04-22T09:53:14.840Z,32.10
2019-04-22T09:55:50.050Z,31.80
2019-04-22T09:58:26.510Z,32.10
2019-04-22T10:01:19.056Z,32.00
2019-04-22T10:03:53.449Z,32.00
2019-04-22T10:09:01.810Z,32.00
2019-04-22T10:11:34.031Z,31.70
2019-04-22T10:19:11.910Z,31.60
2019-04-22T10:24:13.962Z,30.70
2019-04-22T10:27:01.527Z,30.20
2019-04-22T10:29:41.583Z,29.80
2019-04-22T10:31:55.833Z,29.90
2019-04-22T10:34:20.077Z,29.70
2019-04-22T10:36:57.712Z,29.40
2019-04-22T10:39:36.768Z,28.60
2019-04-22T10:41:58.955Z,28.50
2019-04-22T10:44:30.983Z,28.10
2019-04-22T10:47:04.557Z,27.20
2019-04-22T10:49:34.607Z,26.50
2019-04-22T10:52:06.696Z,26.30
2019-04-22T10:54:37.995Z,26.10
2019-04-22T10:57:10.847Z,25.60
2019-04-22T10:59:42.673Z,25.40
2019-04-22T11:02:13.717Z,25.00
2019-04-22T11:04:46.059Z,24.90
2019-04-22T11:07:32.541Z,23.80
2019-04-22T11:10:17.374Z,23.20
2019-04-22T11:12:35.470Z,23.50
2019-04-22T11:15:07.722Z,23.70
2019-04-22T11:17:41.775Z,22.90
2019-04-22T11:20:13.529Z,22.80
2019-04-22T11:22:44.701Z,22.70
2019-04-22T11:25:16.203Z,22.20
2019-04-22T11:27:47.434Z,22.00
2019-04-22T11:30:23.686Z,22.10
2019-04-22T11:32:52.293Z,21.50
2019-04-22T11:35:23.692Z,21.60
2019-04-22T11:37:55.008Z,21.50
2019-04-22T11:40:34.927Z,21.00
2019-04-22T11:42:59.935Z,20.70
2019-04-22T11:45:31.332Z,20.90
2019-04-22T11:48:03.497Z,21.00
2019-04-22T11:50:35.746Z,20.90
2019-04-22T11:53:07.122Z,20.60
2019-04-22T11:55:38.481Z,20.10
2019-04-22T11:58:10.635Z,19.70
2019-04-22T12:00:43.120Z,19.40
2019-04-22T12:03:18.761Z,19.70
2019-04-22T12:05:49.948Z,19.60
2019-04-22T12:08:22.768Z,19.30
2019-04-22T12:10:58.542Z,18.90
2019-04-22T12:13:28.178Z,18.90
2019-04-22T12:16:00.634Z,19.10
2019-04-22T12:18:33.337Z,18.50
2019-04-22T12:21:05.402Z,18.50
2019-04-22T12:23:37.056Z,18.70
2019-04-22T12:26:12.845Z,18.50
2019-04-22T12:28:44.774Z,18.40
2019-04-22T12:31:15.636Z,18.50
2019-04-22T12:33:47.654Z,19.20
2019-04-22T12:36:18.603Z,18.50
2019-04-22T12:38:49.511Z,18.50
2019-04-22T12:41:21.549Z,18.70
2019-04-22T12:43:53.299Z,18.50
2019-04-22T12:46:26.058Z,17.70
2019-04-22T12:48:58.241Z,17.50
2019-04-22T12:51:29.243Z,17.50
2019-04-22T12:54:01.385Z,17.70
2019-04-22T12:56:35.548Z,17.60
2019-04-22T12:59:07.638Z,17.30
2019-04-22T13:01:39.249Z,17.00
2019-04-22T13:04:15.288Z,16.30
2019-04-22T13:06:44.101Z,16.20
2019-04-22T13:09:17.594Z,16.80
2019-04-22T13:11:51.007Z,16.90
2019-04-22T13:14:23.159Z,16.30
2019-04-22T13:16:57.798Z,16.10
2019-04-22T13:19:32.025Z,16.80
2019-04-22T13:22:14.636Z,17.20
2019-04-22T13:24:54.577Z,17.60
2019-04-22T13:27:31.283Z,17.20
2019-04-22T13:30:04.592Z,16.70
2019-04-22T13:32:40.416Z,16.50
2019-04-22T13:35:12.843Z,16.60
2019-04-22T13:37:43.584Z,16.10
2019-04-22T13:40:15.046Z,16.10
2019-04-22T13:42:46.850Z,15.90
2019-04-22T13:45:19.864Z,16.90
2019-04-22T13:48:11.250Z,16.60
2019-04-22T13:55:56.403Z,16.70
2019-04-22T13:58:21.219Z,17.40
2019-04-22T14:00:40.577Z,18.70
2019-04-22T14:03:46.902Z,19.20
2019-04-22T14:06:18.634Z,20.10
2019-04-22T14:08:51.511Z,21.30
2019-04-22T14:11:34.549Z,21.80
2019-04-22T14:13:56.860Z,22.10
2019-04-22T14:16:28.985Z,22.30
2019-04-22T14:19:00.247Z,22.30
2019-04-22T14:21:32.551Z,22.10
2019-04-22T14:24:04.916Z,22.30
2019-04-22T14:26:54.780Z,22.30
2019-04-22T14:29:08.569Z,22.40
2019-04-22T14:31:40.542Z,22.50
2019-04-22T14:34:13.784Z,22.60
2019-04-22T14:36:45.547Z,23.00
2019-04-22T14:39:17.702Z,23.60
2019-04-22T14:42:12.381Z,23.60
2019-04-22T14:47:20.076Z,23.50
2019-04-22T14:49:47.488Z,23.80
2019-04-22T14:52:22.244Z,23.80
2019-04-22T14:54:45.961Z,24.00
2019-04-22T14:57:08.814Z,24.00
2019-04-22T14:59:41.947Z,24.30
2019-04-22T15:02:13.973Z,24.40
2019-04-22T15:04:45.910Z,24.20
2019-04-22T15:07:17.051Z,24.20
2019-04-22T15:09:48.525Z,24.30
2019-04-22T15:12:30.089Z,24.50
2019-04-22T15:14:53.454Z,24.50
2019-04-22T15:17:31.385Z,24.70
2019-04-22T15:20:25.804Z,24.50
2019-04-22T15:22:59.067Z,24.40
2019-04-22T15:25:30.598Z,24.70
2019-04-22T15:28:05.674Z,23.90
2019-04-22T15:30:37.511Z,23.30
2019-04-22T15:33:09.745Z,23.50
2019-04-22T15:35:41.040Z,23.40
2019-04-22T15:38:13.189Z,22.90
2019-04-22T15:40:44.855Z,23.20
2019-04-22T15:43:17.034Z,23.30
2019-04-22T15:45:48.538Z,23.70
2019-04-22T15:48:21.196Z,22.80
2019-04-22T15:50:53.043Z,23.10
2019-04-22T15:53:25.388Z,23.10
2019-04-22T15:55:57.112Z,23.00
2019-04-22T15:58:30.158Z,23.80
2019-04-22T16:01:11.973Z,24.80
2019-04-22T16:03:34.396Z,24.90
2019-04-22T16:06:06.189Z,25.20
2019-04-22T16:08:39.511Z,24.90
2019-04-22T16:11:11.702Z,25.00
2019-04-22T16:13:44.259Z,25.20
2019-04-22T16:16:16.515Z,25.70
2019-04-22T16:18:48.589Z,25.60
2019-04-22T16:21:30.257Z,25.80
2019-04-22T16:24:26.118Z,25.70
2019-04-22T16:27:14.508Z,25.80
2019-04-22T16:29:45.762Z,25.80
2019-04-22T16:32:21.223Z,26.00
2019-04-22T16:34:54.541Z,26.10
2019-04-22T16:37:26.422Z,26.40
2019-04-22T16:39:58.784Z,26.10
2019-04-22T16:42:41.019Z,26.30
2019-04-22T16:45:03.741Z,26.30
2019-04-22T16:47:35.559Z,26.50
2019-04-22T16:50:07.982Z,26.80
2019-04-22T16:52:39.863Z,26.90
2019-04-22T16:55:12.714Z,26.80
2019-04-22T16:57:44.142Z,27.00
2019-04-22T17:00:16.623Z,27.50
2019-04-22T17:03:06.647Z,27.60
2019-04-22T17:05:56.561Z,27.60
2019-04-22T17:08:28.584Z,27.80
2019-04-22T17:10:59.832Z,27.80
2019-04-22T17:13:34.165Z,27.80
2019-04-22T17:16:04.883Z,28.10
2019-04-22T17:18:37.193Z,28.10
2019-04-22T17:21:09.745Z,28.20
2019-04-22T17:23:41.400Z,28.40
2019-04-22T17:26:12.728Z,28.40
2019-04-22T17:28:45.868Z,28.50
2019-04-22T17:31:16.808Z,28.40
2019-04-22T17:33:48.840Z,28.50
2019-04-22T17:36:20.506Z,28.60
2019-04-22T17:39:00.820Z,28.50
2019-04-22T17:41:44.920Z,28.40
2019-04-22T17:44:24.952Z,28.70
2019-04-22T17:46:51.350Z,28.80
2019-04-22T17:49:45.718Z,28.70
2019-04-22T17:52:21.822Z,29.10
2019-04-22T17:54:50.017Z,29.20
2019-04-22T17:57:23.814Z,29.30
2019-04-22T17:59:55.400Z,29.30
2019-04-22T18:02:29.541Z,29.50
2019-04-22T18:04:53.320Z,29.60
2019-04-22T18:07:38.312Z,30.00
2019-04-22T18:12:53.512Z,30.70
2019-04-22T18:15:33.375Z,30.80
2019-04-22T18:17:59.281Z,31.50
2019-04-22T18:20:19.438Z,32.70
2019-04-22T18:22:46.259Z,32.80
2019-04-22T18:25:25.779Z,33.30
2019-04-22T18:28:07.131Z,34.00
2019-04-22T18:30:30.089Z,33.70
2019-04-22T18:33:08.678Z,33.90
2019-04-22T18:35:41.454Z,34.20
2019-04-22T18:38:29.144Z,34.50
2019-04-22T18:40:53.174Z,34.20
2019-04-22T18:43:28.815Z,34.20
2019-04-22T18:46:00.259Z,34.30
2019-04-22T18:48:29.731Z,34.20
2019-04-22T18:51:20.378Z,34.30
2019-04-22T18:54:14.725Z,34.30
2019-04-22T18:56:46.698Z,34.60
2019-04-22T18:59:17.456Z,34.60
2019-04-22T19:01:41.938Z,34.60
2019-04-22T19:04:24.670Z,34.80
2019-04-22T19:07:07.437Z,35.10
2019-04-22T19:09:48.334Z,35.00
2019-04-22T19:12:34.089Z,34.80
2019-04-22T19:14:57.304Z,34.90
2019-04-22T19:20:05.462Z,34.60
2019-04-22T19:22:31.013Z,34.20
2019-04-22T19:24:57.394Z,34.70
2019-04-22T19:27:31.236Z,34.10
2019-04-22T19:30:14.066Z,34.30
2019-04-22T19:32:47.737Z,34.10
2019-04-22T19:35:14.378Z,34.00
2019-04-22T19:37:41.339Z,33.90
2019-04-22T19:40:24.126Z,34.00
2019-04-22T19:42:56.206Z,33.80
2019-04-22T19:45:26.551Z,33.80
2019-04-22T19:48:06.570Z,34.10
2019-04-22T19:50:34.993Z,34.40
2019-04-22T19:53:11.360Z,34.50
2019-04-22T19:55:41.143Z,34.70
2019-04-22T19:58:14.883Z,34.70
2019-04-22T20:01:02.370Z,34.90
2019-04-22T20:04:12.155Z,34.80
2019-04-22T20:06:38.370Z,35.20
2019-04-22T20:09:14.009Z,35.40
2019-04-22T20:11:43.906Z,35.70
2019-04-22T20:14:19.962Z,35.90
2019-04-22T20:16:43.909Z,35.80
2019-04-22T20:19:33.784Z,35.80
2019-04-22T20:21:59.685Z,35.80
2019-04-22T20:24:15.923Z,35.90
2019-04-22T20:27:09.331Z,35.80
2019-04-22T20:29:47.793Z,35.90
2019-04-22T20:32:21.869Z,36.30
2019-04-22T20:35:06.000Z,36.40
2019-04-22T20:37:47.669Z,36.30
2019-04-22T20:40:38.268Z,36.40
2019-04-22T20:43:17.613Z,36.40
2019-04-22T20:46:15.106Z,36.60
2019-04-22T20:49:01.782Z,36.60
2019-04-22T20:54:49.416Z,37.00
2019-04-22T20:57:50.020Z,37.00
2019-04-22T21:00:31.136Z,37.10
2019-04-22T21:03:13.341Z,37.10
2019-04-22T21:06:06.890Z,37.30
2019-04-22T21:08:50.343Z,37.70
2019-04-22T21:11:17.820Z,37.30
2019-04-22T21:13:48.194Z,37.40
2019-04-22T21:16:27.034Z,37.70
2019-04-22T21:18:52.677Z,37.80
2019-04-22T21:21:38.265Z,38.00
2019-04-22T21:23:59.368Z,38.00
2019-04-22T21:26:39.973Z,38.20
2019-04-22T21:29:13.318Z,38.00
2019-04-22T21:31:45.409Z,38.50
2019-04-22T21:34:19.552Z,38.60
2019-04-22T21:36:55.998Z,38.30
2019-04-22T21:39:29.037Z,38.50
2019-04-22T21:42:00.190Z,38.50
2019-04-22T21:44:31.832Z,38.50
2019-04-22T21:47:14.609Z,38.60
2019-04-22T21:49:56.697Z,38.80
2019-04-22T21:52:17.089Z,38.80
2019-04-22T21:54:51.757Z,38.90
2019-04-22T21:57:27.798Z,39.30
2019-04-22T22:00:06.338Z,39.30
2019-04-22T22:02:39.570Z,39.40
2019-04-22T22:05:07.192Z,39.50
2019-04-22T22:07:26.861Z,39.60
2019-04-22T22:10:15.010Z,39.90
2019-04-22T22:12:52.459Z,40.00
2019-04-22T22:15:22.492Z,40.10
2019-04-22T22:17:51.152Z,40.10
2019-04-22T22:20:24.141Z,40.20
2019-04-22T22:23:20.949Z,40.30
2019-04-22T22:25:28.055Z,40.30
2019-04-22T22:28:08.896Z,40.40
2019-04-22T22:33:31.174Z,40.40
2019-04-22T22:36:01.172Z,40.50
2019-04-22T22:38:29.791Z,40.30
2019-04-22T22:40:48.075Z,40.40
2019-04-22T22:43:29.714Z,40.30
2019-04-22T22:46:09.432Z,40.20
2019-04-22T22:48:51.435Z,40.20
2019-04-22T22:51:20.632Z,40.30
2019-04-22T22:53:56.546Z,40.20
2019-04-22T22:56:28.874Z,40.10
2019-04-22T22:58:58.681Z,40.30
2019-04-22T23:01:36.055Z,40.40
2019-04-22T23:04:21.141Z,40.40
2019-04-22T23:06:56.164Z,40.70
2019-04-22T23:09:10.198Z,40.70
2019-04-22T23:11:56.867Z,40.60
2019-04-22T23:14:14.500Z,40.50
2019-04-22T23:16:37.885Z,40.40
2019-04-22T23:19:05.167Z,40.20
2019-04-22T23:21:41.614Z,40.10
2019-04-22T23:24:43.952Z,40.10
2019-04-22T23:27:22.807Z,40.00
2019-04-22T23:29:57.230Z,40.10
2019-04-22T23:32:31.939Z,40.10
2019-04-22T23:35:15.333Z,40.10
2019-04-22T23:37:47.610Z,40.00
2019-04-22T23:40:32.572Z,40.00
2019-04-22T23:43:00.284Z,40.30
2019-04-22T23:45:27.452Z,40.70
2019-04-22T23:47:49.656Z,40.40
2019-04-22T23:50:30.785Z,40.50
2019-04-22T23:53:06.801Z,40.50
2019-04-22T23:55:43.536Z,40.60
2019-04-22T23:58:21.176Z,40.50
